sensor_id;sensor_type;location;lat;lon;timestamp;P1;durP1;ratioP1;P2;durP2;ratioP2
7883;SDS011;3987;51.458;7.238;2023-03-23T00:13:06;4.93;;;4.53;;
7883;SDS011;3987;51.458;7.238;2023-03-23T00:28:06;4.07;;;3.77;;
7883;SDS011;3987;51.458;7.238;2023-03-23T00:43:07;3.33;;;3.17;;
7883;SDS011;3987;51.458;7.238;2023-03-23T00:58:09;3.23;;;3.10;;
7883;SDS011;3987;51.458;7.238;2023-03-23T01:13:11;3.20;;;2.97;;
7883;SDS011;3987;51.458;7.238;2023-03-23T01:28:11;2.50;;;2.40;;
7883;SDS011;3987;51.458;7.238;2023-03-23T01:43:13;3.33;;;3.13;;
7883;SDS011;3987;51.458;7.238;2023-03-23T01:58:17;2.40;;;2.30;;
7883;SDS011;3987;51.458;7.238;2023-03-23T02:13:19;2.40;;;1.97;;
7883;SDS011;3987;51.458;7.238;2023-03-23T02:43:54;3.17;;;3.07;;
7883;SDS011;3987;51.458;7.238;2023-03-23T02:58:55;2.90;;;2.80;;
7883;SDS011;3987;51.458;7.238;2023-03-23T03:13:58;2.43;;;2.33;;
7883;SDS011;3987;51.458;7.238;2023-03-23T03:29:06;2.20;;;2.10;;
7883;SDS011;3987;51.458;7.238;2023-03-23T03:44:11;2.10;;;2.10;;
7883;SDS011;3987;51.458;7.238;2023-03-23T03:59:12;2.10;;;2.10;;
7883;SDS011;3987;51.458;7.238;2023-03-23T04:14:41;1.37;;;1.37;;
7883;SDS011;3987;51.458;7.238;2023-03-23T04:29:43;2.00;;;2.00;;
7883;SDS011;3987;51.458;7.238;2023-03-23T04:45:15;1.90;;;1.90;;
7883;SDS011;3987;51.458;7.238;2023-03-23T05:00:22;2.03;;;1.93;;
7883;SDS011;3987;51.458;7.238;2023-03-23T05:15:26;2.10;;;2.10;;
7883;SDS011;3987;51.458;7.238;2023-03-23T05:30:27;1.67;;;1.67;;
7883;SDS011;3987;51.458;7.238;2023-03-23T05:45:30;2.27;;;2.17;;
7883;SDS011;3987;51.458;7.238;2023-03-23T06:00:30;1.70;;;1.60;;
7883;SDS011;3987;51.458;7.238;2023-03-23T06:15:43;2.17;;;2.00;;
7883;SDS011;3987;51.458;7.238;2023-03-23T06:30:58;2.60;;;2.23;;
7883;SDS011;3987;51.458;7.238;2023-03-23T06:46:05;2.13;;;2.10;;
7883;SDS011;3987;51.458;7.238;2023-03-23T07:01:15;2.30;;;2.30;;
7883;SDS011;3987;51.458;7.238;2023-03-23T07:16:24;2.83;;;2.47;;
7883;SDS011;3987;51.458;7.238;2023-03-23T07:31:27;2.13;;;1.63;;
7883;SDS011;3987;51.458;7.238;2023-03-23T07:46:29;2.77;;;1.87;;
7883;SDS011;3987;51.458;7.238;2023-03-23T08:01:36;2.60;;;2.00;;
7883;SDS011;3987;51.458;7.238;2023-03-23T08:16:57;1.60;;;1.57;;
7883;SDS011;3987;51.458;7.238;2023-03-23T08:32:10;3.50;;;1.90;;
7883;SDS011;3987;51.458;7.238;2023-03-23T08:47:21;2.70;;;1.60;;
7883;SDS011;3987;51.458;7.238;2023-03-23T09:02:48;1.50;;;1.50;;
7883;SDS011;3987;51.458;7.238;2023-03-23T09:17:55;5.80;;;1.30;;
7883;SDS011;3987;51.458;7.238;2023-03-23T09:32:57;2.40;;;1.90;;
7883;SDS011;3987;51.458;7.238;2023-03-23T10:03:33;5.03;;;1.53;;
7883;SDS011;3987;51.458;7.238;2023-03-23T10:34:03;1.67;;;1.57;;
7883;SDS011;3987;51.458;7.238;2023-03-23T10:49:23;1.57;;;1.40;;
7883;SDS011;3987;51.458;7.238;2023-03-23T11:04:25;1.70;;;1.60;;
7883;SDS011;3987;51.458;7.238;2023-03-23T11:19:27;2.57;;;2.37;;
7883;SDS011;3987;51.458;7.238;2023-03-23T11:34:32;4.17;;;3.73;;
7883;SDS011;3987;51.458;7.238;2023-03-23T12:20:32;1.57;;;1.50;;
7883;SDS011;3987;51.458;7.238;2023-03-23T12:51:26;1.83;;;1.80;;
7883;SDS011;3987;51.458;7.238;2023-03-23T13:06:40;2.10;;;2.00;;
7883;SDS011;3987;51.458;7.238;2023-03-23T13:21:50;2.37;;;2.20;;
7883;SDS011;3987;51.458;7.238;2023-03-23T13:37:01;2.97;;;2.03;;
7883;SDS011;3987;51.458;7.238;2023-03-23T13:52:15;1.80;;;1.70;;
7883;SDS011;3987;51.458;7.238;2023-03-23T14:07:18;2.60;;;2.30;;
7883;SDS011;3987;51.458;7.238;2023-03-23T14:22:21;6.47;;;4.23;;
7883;SDS011;3987;51.458;7.238;2023-03-23T14:37:23;6.17;;;5.83;;
7883;SDS011;3987;51.458;7.238;2023-03-23T14:52:32;4.93;;;4.70;;
7883;SDS011;3987;51.458;7.238;2023-03-23T15:07:35;3.60;;;3.17;;
7883;SDS011;3987;51.458;7.238;2023-03-23T15:22:44;3.10;;;2.83;;
7883;SDS011;3987;51.458;7.238;2023-03-23T15:37:51;2.00;;;1.90;;
7883;SDS011;3987;51.458;7.238;2023-03-23T15:52:53;5.30;;;2.20;;
7883;SDS011;3987;51.458;7.238;2023-03-23T16:07:54;1.87;;;1.73;;
7883;SDS011;3987;51.458;7.238;2023-03-23T16:22:54;2.03;;;1.90;;
7883;SDS011;3987;51.458;7.238;2023-03-23T16:37:55;2.40;;;2.17;;
7883;SDS011;3987;51.458;7.238;2023-03-23T16:52:56;2.67;;;2.47;;
7883;SDS011;3987;51.458;7.238;2023-03-23T17:07:57;2.40;;;1.90;;
7883;SDS011;3987;51.458;7.238;2023-03-23T17:22:58;5.23;;;2.83;;
7883;SDS011;3987;51.458;7.238;2023-03-23T17:37:59;2.30;;;2.20;;
7883;SDS011;3987;51.458;7.238;2023-03-23T17:52:59;2.80;;;2.37;;
7883;SDS011;3987;51.458;7.238;2023-03-23T18:08:00;2.43;;;2.33;;
7883;SDS011;3987;51.458;7.238;2023-03-23T18:23:01;4.97;;;2.37;;
7883;SDS011;3987;51.458;7.238;2023-03-23T18:38:03;5.03;;;2.53;;
7883;SDS011;3987;51.458;7.238;2023-03-23T18:53:03;3.03;;;2.80;;
7883;SDS011;3987;51.458;7.238;2023-03-23T19:08:05;2.93;;;2.63;;
7883;SDS011;3987;51.458;7.238;2023-03-23T19:23:07;2.77;;;2.20;;
7883;SDS011;3987;51.458;7.238;2023-03-23T19:38:07;4.77;;;2.73;;
7883;SDS011;3987;51.458;7.238;2023-03-23T19:53:08;3.20;;;2.63;;
7883;SDS011;3987;51.458;7.238;2023-03-23T20:08:08;2.40;;;2.20;;
7883;SDS011;3987;51.458;7.238;2023-03-23T20:23:09;2.47;;;2.27;;
7883;SDS011;3987;51.458;7.238;2023-03-23T20:38:09;2.13;;;1.90;;
7883;SDS011;3987;51.458;7.238;2023-03-23T20:53:10;2.07;;;1.87;;
7883;SDS011;3987;51.458;7.238;2023-03-23T21:08:10;7.27;;;2.03;;
7883;SDS011;3987;51.458;7.238;2023-03-23T21:23:11;4.40;;;1.80;;
7883;SDS011;3987;51.458;7.238;2023-03-23T21:38:13;1.90;;;1.80;;
7883;SDS011;3987;51.458;7.238;2023-03-23T21:53:14;1.90;;;1.80;;
7883;SDS011;3987;51.458;7.238;2023-03-23T22:08:17;2.73;;;1.87;;
7883;SDS011;3987;51.458;7.238;2023-03-23T22:23:19;3.43;;;2.10;;
7883;SDS011;3987;51.458;7.238;2023-03-23T22:38:20;3.73;;;2.40;;
7883;SDS011;3987;51.458;7.238;2023-03-23T22:53:20;3.30;;;2.03;;
7883;SDS011;3987;51.458;7.238;2023-03-23T23:08:21;2.07;;;1.97;;
7883;SDS011;3987;51.458;7.238;2023-03-23T23:23:23;2.50;;;2.40;;
7883;SDS011;3987;51.458;7.238;2023-03-23T23:38:24;2.90;;;2.30;;
7883;SDS011;3987;51.458;7.238;2023-03-23T23:53:25;2.20;;;2.10;;
